Fish Trap — WDD2213 — position and weather

sailwx.info

Track history (hours):
 
Tides and Currents Weather Stations Pressure Air Temp Water Temp Dewpoint Dewpoint Depression Visibility Wind Speed Wind Dir Waves Ship Positions

Fish Trap

Owner: Capt. Bob's Sportfishing, Inc, Haven Beach, NJ. More information available from US FCC via Universal Licensing System and Coast Guard Vessel Documentation Center.

Last reported at 2017-Nov-18 20:00 UTC. Time now 2017-Nov-19 08:34 UTC.
Position N 39°45' W 074°07'.

Length 13 m.

Type: Fishing. MMSI: 367112380.

Date/timePositionNaut miles runAvg speedWind from/ knotsBaromVisibWave heightAir tempDewpointWater temp
2017-Nov-18 20:00N 39°45' W 074°07'0 0.0
2017-Nov-18 19:30N 39°45' W 074°07'0 0.0
2017-Nov-18 18:54N 39°45' W 074°07'0 0.0
2017-Nov-18 17:51N 39°45' W 074°07'1 4.1
2017-Nov-18 17:30N 39°46' W 074°05'0 0.7
2017-Nov-18 17:00N 39°46' W 074°05'2 3.4
2017-Nov-18 16:30N 39°47' W 074°04'3 0.7
2017-Nov-18 12:08N 39°51' W 074°03'1 4.7
2017-Nov-18 11:49N 39°49' W 074°02'1 1.8
2017-Nov-18 11:30N 39°49' W 074°02'5 6.0
2017-Nov-18 10:41N 39°45' W 074°07'0 0.0
2017-Nov-17 18:44N 39°45' W 074°07'0 0.0
2017-Nov-17 18:13N 39°45' W 074°07'1 4.7
2017-Nov-17 17:59N 39°46' W 074°06'0 0.1
2017-Nov-17 11:37N 39°45' W 074°05'0 0.3
2017-Nov-17 11:28N 39°45' W 074°05'1 1.5
2017-Nov-17 10:41N 39°45' W 074°07'0 0.0
2017-Nov-16 19:37N 39°45' W 074°07'0 0.0
2017-Nov-16 19:12N 39°45' W 074°07'0 0.0
2017-Nov-16 18:19N 39°45' W 074°07'0 0.0
2017-Nov-16 17:54N 39°45' W 074°07'1 3.1
2017-Nov-16 17:28N 39°46' W 074°05'4 1.1
2017-Nov-16 13:29N 39°50' W 074°02'1 1.4
2017-Nov-16 12:47N 39°49' W 074°02'3 3.6
2017-Nov-16 11:52N 39°46' W 074°05'1 2.1
2017-Nov-16 11:28N 39°46' W 074°06'1 0.1
2017-Nov-15 19:08N 39°45' W 074°07'0 0.0
2017-Nov-15 18:50N 39°45' W 074°07'0 0.0
2017-Nov-15 18:26N 39°45' W 074°07'0 0.0
2017-Nov-15 17:50N 39°45' W 074°07'1 2.1
2017-Nov-15 17:27N 39°46' W 074°07'1 0.2
2017-Nov-15 12:40N 39°46' W 074°05'0 1.4
2017-Nov-15 12:30N 39°46' W 074°05'0 0.1
2017-Nov-15 11:57N 39°46' W 074°05'0 0.1
2017-Nov-15 11:28N 39°45' W 074°05'1 0.1
2017-Nov-14 18:39N 39°45' W 074°07'0 0.0
2017-Nov-14 18:30N 39°45' W 074°07'0 0.0
2017-Nov-14 17:39N 39°45' W 074°07'1 3.9
2017-Nov-14 17:29N 39°46' W 074°07'1 1.9
2017-Nov-14 16:56N 39°46' W 074°05'0 0.3
2017-Nov-14 16:30N 39°45' W 074°05'0 0.0
2017-Nov-14 15:59N 39°45' W 074°05'2 0.5
2017-Nov-14 11:29N 39°47' W 074°05'3 5.5
2017-Nov-14 10:59N 39°45' W 074°07'0 0.0
2017-Nov-12 20:28N 39°45' W 074°07'0 0.0
2017-Nov-12 19:52N 39°45' W 074°07'0 0.0
2017-Nov-12 19:28N 39°45' W 074°07'1 1.4
2017-Nov-12 19:00N 39°46' W 074°07'1 2.0
2017-Nov-12 18:30N 39°45' W 074°05'0 0.2
2017-Nov-12 18:00N 39°46' W 074°05'1 0.2
2017-Nov-12 11:29N 39°46' W 074°05'2 4.2
2017-Nov-12 10:59N 39°45' W 074°07'0 0.0
2017-Nov-11 21:00N 39°45' W 074°07'0 0.0
2017-Nov-11 20:30N 39°45' W 074°07'0 0.0
2017-Nov-11 20:00N 39°45' W 074°07'0 0.6
2017-Nov-11 19:29N 39°45' W 074°07'2 0.2
2017-Nov-11 11:29N 39°46' W 074°05'2 0.1
2017-Nov-10 18:38N 39°45' W 074°07'0 2.1
2017-Nov-10 18:25N 39°45' W 074°07'1 3.0
2017-Nov-10 18:00N 39°46' W 074°05'0 0.2
2017-Nov-10 17:29N 39°45' W 074°05'1 0.1
2017-Nov-10 11:26N 39°46' W 074°05'2 2.6
2017-Nov-10 10:51N 39°45' W 074°07'0 0.0
2017-Nov-09 20:02N 39°45' W 074°07'0 0.0
2017-Nov-09 19:56N 39°45' W 074°07'0 0.0
2017-Nov-09 19:20N 39°45' W 074°07'0 0.0
2017-Nov-09 18:56N 39°45' W 074°07'0 0.0
2017-Nov-09 18:26N 39°45' W 074°07'2 0.3
2017-Nov-09 12:16N 39°46' W 074°05'2 4.7
2017-Nov-09 11:53N 39°45' W 074°07'0 0.0
2017-Nov-09 11:29N 39°45' W 074°07'  
Track history (hours):
 
Tides and Currents Weather Stations Pressure Air Temp Water Temp Dewpoint Dewpoint Depression Visibility Wind Speed Wind Dir Waves Ship Positions

Fish Trap

Owner: Capt. Bob's Sportfishing, Inc, Haven Beach, NJ. More information available from US FCC via Universal Licensing System and Coast Guard Vessel Documentation Center.

Last reported at 2017-Nov-18 20:00 UTC. Time now 2017-Nov-19 08:34 UTC.
Position N 39°45' W 074°07'.

Length 13 m.

Type: Fishing. MMSI: 367112380.

Date/timePositionNaut miles runAvg speedWind from/ knotsBaromVisibWave heightAir tempDewpointWater temp
2017-Nov-18 20:00N 39°45' W 074°07'0 0.0
2017-Nov-18 19:30N 39°45' W 074°07'0 0.0
2017-Nov-18 18:54N 39°45' W 074°07'0 0.0
2017-Nov-18 17:51N 39°45' W 074°07'1 4.1
2017-Nov-18 17:30N 39°46' W 074°05'0 0.7
2017-Nov-18 17:00N 39°46' W 074°05'2 3.4
2017-Nov-18 16:30N 39°47' W 074°04'3 0.7
2017-Nov-18 12:08N 39°51' W 074°03'1 4.7
2017-Nov-18 11:49N 39°49' W 074°02'1 1.8
2017-Nov-18 11:30N 39°49' W 074°02'5 6.0
2017-Nov-18 10:41N 39°45' W 074°07'0 0.0
2017-Nov-17 18:44N 39°45' W 074°07'0 0.0
2017-Nov-17 18:13N 39°45' W 074°07'1 4.7
2017-Nov-17 17:59N 39°46' W 074°06'0 0.1
2017-Nov-17 11:37N 39°45' W 074°05'0 0.3
2017-Nov-17 11:28N 39°45' W 074°05'1 1.5
2017-Nov-17 10:41N 39°45' W 074°07'0 0.0
2017-Nov-16 19:37N 39°45' W 074°07'0 0.0
2017-Nov-16 19:12N 39°45' W 074°07'0 0.0
2017-Nov-16 18:19N 39°45' W 074°07'0 0.0
2017-Nov-16 17:54N 39°45' W 074°07'1 3.1
2017-Nov-16 17:28N 39°46' W 074°05'4 1.1
2017-Nov-16 13:29N 39°50' W 074°02'1 1.4
2017-Nov-16 12:47N 39°49' W 074°02'3 3.6
2017-Nov-16 11:52N 39°46' W 074°05'1 2.1
2017-Nov-16 11:28N 39°46' W 074°06'1 0.1
2017-Nov-15 19:08N 39°45' W 074°07'0 0.0
2017-Nov-15 18:50N 39°45' W 074°07'0 0.0
2017-Nov-15 18:26N 39°45' W 074°07'0 0.0
2017-Nov-15 17:50N 39°45' W 074°07'1 2.1
2017-Nov-15 17:27N 39°46' W 074°07'1 0.2
2017-Nov-15 12:40N 39°46' W 074°05'0 1.4
2017-Nov-15 12:30N 39°46' W 074°05'0 0.1
2017-Nov-15 11:57N 39°46' W 074°05'0 0.1
2017-Nov-15 11:28N 39°45' W 074°05'1 0.1
2017-Nov-14 18:39N 39°45' W 074°07'0 0.0
2017-Nov-14 18:30N 39°45' W 074°07'0 0.0
2017-Nov-14 17:39N 39°45' W 074°07'1 3.9
2017-Nov-14 17:29N 39°46' W 074°07'1 1.9
2017-Nov-14 16:56N 39°46' W 074°05'0 0.3
2017-Nov-14 16:30N 39°45' W 074°05'0 0.0
2017-Nov-14 15:59N 39°45' W 074°05'2 0.5
2017-Nov-14 11:29N 39°47' W 074°05'3 5.5
2017-Nov-14 10:59N 39°45' W 074°07'0 0.0
2017-Nov-12 20:28N 39°45' W 074°07'0 0.0
2017-Nov-12 19:52N 39°45' W 074°07'0 0.0
2017-Nov-12 19:28N 39°45' W 074°07'1 1.4
2017-Nov-12 19:00N 39°46' W 074°07'1 2.0
2017-Nov-12 18:30N 39°45' W 074°05'0 0.2
2017-Nov-12 18:00N 39°46' W 074°05'1 0.2
2017-Nov-12 11:29N 39°46' W 074°05'2 4.2
2017-Nov-12 10:59N 39°45' W 074°07'0 0.0
2017-Nov-11 21:00N 39°45' W 074°07'0 0.0
2017-Nov-11 20:30N 39°45' W 074°07'0 0.0
2017-Nov-11 20:00N 39°45' W 074°07'0 0.6
2017-Nov-11 19:29N 39°45' W 074°07'2 0.2
2017-Nov-11 11:29N 39°46' W 074°05'2 0.1
2017-Nov-10 18:38N 39°45' W 074°07'0 2.1
2017-Nov-10 18:25N 39°45' W 074°07'1 3.0
2017-Nov-10 18:00N 39°46' W 074°05'0 0.2
2017-Nov-10 17:29N 39°45' W 074°05'1 0.1
2017-Nov-10 11:26N 39°46' W 074°05'2 2.6
2017-Nov-10 10:51N 39°45' W 074°07'0 0.0
2017-Nov-09 20:02N 39°45' W 074°07'0 0.0
2017-Nov-09 19:56N 39°45' W 074°07'0 0.0
2017-Nov-09 19:20N 39°45' W 074°07'0 0.0
2017-Nov-09 18:56N 39°45' W 074°07'0 0.0
2017-Nov-09 18:26N 39°45' W 074°07'2 0.3
2017-Nov-09 12:16N 39°46' W 074°05'2 4.7
2017-Nov-09 11:53N 39°45' W 074°07'0 0.0
2017-Nov-09 11:29N 39°45' W 074°07'  

Dump ship's entire track history